sensor_id;sensor_type;location;lat;lon;timestamp;P1;durP1;ratioP1;P2;durP2;ratioP2
60086;SDS011;45960;53.630;55.972;2023-02-28T00:00:27;19.92;;;10.07;;
60086;SDS011;45960;53.630;55.972;2023-02-28T00:01:29;22.42;;;8.90;;
60086;SDS011;45960;53.630;55.972;2023-02-28T00:02:30;23.13;;;9.27;;
60086;SDS011;45960;53.630;55.972;2023-02-28T00:03:31;20.35;;;9.25;;
60086;SDS011;45960;53.630;55.972;2023-02-28T00:04:35;19.40;;;10.25;;
60086;SDS011;45960;53.630;55.972;2023-02-28T00:05:36;20.27;;;9.57;;
60086;SDS011;45960;53.630;55.972;2023-02-28T00:06:38;22.98;;;10.50;;
60086;SDS011;45960;53.630;55.972;2023-02-28T00:07:39;32.47;;;12.00;;
60086;SDS011;45960;53.630;55.972;2023-02-28T00:08:40;24.50;;;10.48;;
60086;SDS011;45960;53.630;55.972;2023-02-28T00:09:41;22.15;;;10.07;;
60086;SDS011;45960;53.630;55.972;2023-02-28T00:10:42;19.70;;;8.18;;
60086;SDS011;45960;53.630;55.972;2023-02-28T00:11:43;14.65;;;7.10;;
60086;SDS011;45960;53.630;55.972;2023-02-28T00:12:44;19.17;;;7.13;;
60086;SDS011;45960;53.630;55.972;2023-02-28T00:13:46;18.15;;;7.55;;
60086;SDS011;45960;53.630;55.972;2023-02-28T00:14:48;17.98;;;8.00;;
60086;SDS011;45960;53.630;55.972;2023-02-28T00:15:58;21.38;;;8.73;;
60086;SDS011;45960;53.630;55.972;2023-02-28T00:17:00;20.13;;;9.45;;
60086;SDS011;45960;53.630;55.972;2023-02-28T00:18:02;18.27;;;7.47;;
60086;SDS011;45960;53.630;55.972;2023-02-28T00:19:03;16.13;;;7.78;;
60086;SDS011;45960;53.630;55.972;2023-02-28T00:20:05;17.70;;;6.72;;
60086;SDS011;45960;53.630;55.972;2023-02-28T00:21:10;20.27;;;7.72;;
60086;SDS011;45960;53.630;55.972;2023-02-28T00:22:11;19.42;;;7.97;;
60086;SDS011;45960;53.630;55.972;2023-02-28T00:23:12;20.67;;;8.00;;
60086;SDS011;45960;53.630;55.972;2023-02-28T00:24:13;22.00;;;8.75;;
60086;SDS011;45960;53.630;55.972;2023-02-28T00:25:16;19.33;;;6.03;;
60086;SDS011;45960;53.630;55.972;2023-02-28T00:26:19;18.27;;;8.13;;
60086;SDS011;45960;53.630;55.972;2023-02-28T00:27:21;14.27;;;7.65;;
60086;SDS011;45960;53.630;55.972;2023-02-28T00:28:22;20.33;;;7.88;;
60086;SDS011;45960;53.630;55.972;2023-02-28T00:29:25;17.75;;;8.75;;
60086;SDS011;45960;53.630;55.972;2023-02-28T00:30:26;21.25;;;9.45;;
60086;SDS011;45960;53.630;55.972;2023-02-28T00:31:27;14.23;;;8.27;;
60086;SDS011;45960;53.630;55.972;2023-02-28T00:32:28;15.93;;;8.88;;
60086;SDS011;45960;53.630;55.972;2023-02-28T00:33:30;20.38;;;8.80;;
60086;SDS011;45960;53.630;55.972;2023-02-28T00:34:31;19.30;;;8.70;;
60086;SDS011;45960;53.630;55.972;2023-02-28T00:35:38;17.90;;;7.10;;
60086;SDS011;45960;53.630;55.972;2023-02-28T00:36:39;16.88;;;7.88;;
60086;SDS011;45960;53.630;55.972;2023-02-28T00:37:44;19.15;;;7.40;;
60086;SDS011;45960;53.630;55.972;2023-02-28T00:38:45;18.08;;;8.73;;
60086;SDS011;45960;53.630;55.972;2023-02-28T00:39:46;15.45;;;6.55;;
60086;SDS011;45960;53.630;55.972;2023-02-28T00:40:47;15.38;;;6.53;;
60086;SDS011;45960;53.630;55.972;2023-02-28T00:41:48;15.85;;;6.78;;
60086;SDS011;45960;53.630;55.972;2023-02-28T00:42:49;20.58;;;8.80;;
60086;SDS011;45960;53.630;55.972;2023-02-28T00:43:51;11.93;;;5.35;;
60086;SDS011;45960;53.630;55.972;2023-02-28T00:44:52;10.93;;;6.15;;
60086;SDS011;45960;53.630;55.972;2023-02-28T00:45:53;19.33;;;7.32;;
60086;SDS011;45960;53.630;55.972;2023-02-28T00:46:54;19.30;;;5.18;;
60086;SDS011;45960;53.630;55.972;2023-02-28T00:47:58;13.85;;;7.25;;
60086;SDS011;45960;53.630;55.972;2023-02-28T00:48:59;19.10;;;9.00;;
60086;SDS011;45960;53.630;55.972;2023-02-28T00:50:00;26.95;;;9.82;;
60086;SDS011;45960;53.630;55.972;2023-02-28T00:51:02;15.52;;;7.47;;
60086;SDS011;45960;53.630;55.972;2023-02-28T00:52:05;15.05;;;6.93;;
60086;SDS011;45960;53.630;55.972;2023-02-28T00:53:06;9.52;;;5.30;;
60086;SDS011;45960;53.630;55.972;2023-02-28T00:54:07;23.88;;;8.70;;
60086;SDS011;45960;53.630;55.972;2023-02-28T00:55:08;12.48;;;6.65;;
60086;SDS011;45960;53.630;55.972;2023-02-28T00:56:10;18.42;;;6.18;;
60086;SDS011;45960;53.630;55.972;2023-02-28T00:57:11;16.35;;;7.18;;
60086;SDS011;45960;53.630;55.972;2023-02-28T00:58:12;20.40;;;9.68;;
60086;SDS011;45960;53.630;55.972;2023-02-28T00:59:13;14.10;;;5.85;;
60086;SDS011;45960;53.630;55.972;2023-02-28T01:00:16;17.13;;;7.97;;
60086;SDS011;45960;53.630;55.972;2023-02-28T01:01:17;21.55;;;10.15;;
60086;SDS011;45960;53.630;55.972;2023-02-28T01:02:18;24.35;;;8.40;;
60086;SDS011;45960;53.630;55.972;2023-02-28T01:03:20;15.85;;;7.70;;
60086;SDS011;45960;53.630;55.972;2023-02-28T01:04:21;17.48;;;7.93;;
60086;SDS011;45960;53.630;55.972;2023-02-28T01:05:22;14.35;;;7.18;;
60086;SDS011;45960;53.630;55.972;2023-02-28T01:06:24;22.10;;;6.90;;
60086;SDS011;45960;53.630;55.972;2023-02-28T01:07:25;21.10;;;6.93;;
60086;SDS011;45960;53.630;55.972;2023-02-28T01:08:26;17.67;;;8.43;;
60086;SDS011;45960;53.630;55.972;2023-02-28T01:09:27;12.45;;;5.80;;
60086;SDS011;45960;53.630;55.972;2023-02-28T01:10:29;18.25;;;8.45;;
60086;SDS011;45960;53.630;55.972;2023-02-28T01:11:32;22.20;;;8.95;;
60086;SDS011;45960;53.630;55.972;2023-02-28T01:12:33;22.13;;;10.10;;
60086;SDS011;45960;53.630;55.972;2023-02-28T01:13:34;9.95;;;4.43;;
60086;SDS011;45960;53.630;55.972;2023-02-28T01:14:35;15.05;;;7.28;;
60086;SDS011;45960;53.630;55.972;2023-02-28T01:15:37;16.98;;;7.47;;
60086;SDS011;45960;53.630;55.972;2023-02-28T01:16:42;20.23;;;8.20;;
60086;SDS011;45960;53.630;55.972;2023-02-28T01:17:43;14.88;;;7.65;;
60086;SDS011;45960;53.630;55.972;2023-02-28T01:18:44;18.30;;;7.55;;
60086;SDS011;45960;53.630;55.972;2023-02-28T01:19:45;16.60;;;8.57;;
60086;SDS011;45960;53.630;55.972;2023-02-28T01:20:46;19.40;;;8.27;;
60086;SDS011;45960;53.630;55.972;2023-02-28T01:21:47;12.70;;;6.65;;
60086;SDS011;45960;53.630;55.972;2023-02-28T01:22:49;17.75;;;8.13;;
60086;SDS011;45960;53.630;55.972;2023-02-28T01:23:50;19.30;;;8.57;;
60086;SDS011;45960;53.630;55.972;2023-02-28T01:24:51;15.57;;;7.03;;
60086;SDS011;45960;53.630;55.972;2023-02-28T01:25:53;18.98;;;7.88;;
60086;SDS011;45960;53.630;55.972;2023-02-28T01:26:54;18.73;;;7.15;;
60086;SDS011;45960;53.630;55.972;2023-02-28T01:27:55;17.67;;;6.57;;
60086;SDS011;45960;53.630;55.972;2023-02-28T01:28:57;17.55;;;8.40;;
60086;SDS011;45960;53.630;55.972;2023-02-28T01:29:59;12.98;;;6.50;;
60086;SDS011;45960;53.630;55.972;2023-02-28T01:31:00;14.50;;;7.35;;
60086;SDS011;45960;53.630;55.972;2023-02-28T01:32:01;18.65;;;8.50;;
60086;SDS011;45960;53.630;55.972;2023-02-28T01:33:03;16.52;;;6.93;;
60086;SDS011;45960;53.630;55.972;2023-02-28T01:34:04;20.75;;;8.27;;
60086;SDS011;45960;53.630;55.972;2023-02-28T01:35:05;18.42;;;8.75;;
60086;SDS011;45960;53.630;55.972;2023-02-28T01:36:10;18.92;;;8.50;;
60086;SDS011;45960;53.630;55.972;2023-02-28T01:37:13;16.55;;;7.32;;
60086;SDS011;45960;53.630;55.972;2023-02-28T01:38:18;20.42;;;8.27;;
60086;SDS011;45960;53.630;55.972;2023-02-28T01:39:19;16.50;;;7.70;;
60086;SDS011;45960;53.630;55.972;2023-02-28T01:40:20;17.90;;;6.93;;
60086;SDS011;45960;53.630;55.972;2023-02-28T01:41:25;14.68;;;7.68;;
60086;SDS011;45960;53.630;55.972;2023-02-28T01:42:28;18.33;;;8.15;;
60086;SDS011;45960;53.630;55.972;2023-02-28T01:43:32;17.02;;;7.05;;
60086;SDS011;45960;53.630;55.972;2023-02-28T01:46:07;14.38;;;8.07;;
60086;SDS011;45960;53.630;55.972;2023-02-28T01:47:08;14.38;;;7.90;;
60086;SDS011;45960;53.630;55.972;2023-02-28T01:48:09;22.25;;;8.90;;
60086;SDS011;45960;53.630;55.972;2023-02-28T01:49:14;17.05;;;7.60;;
60086;SDS011;45960;53.630;55.972;2023-02-28T01:50:19;20.13;;;8.30;;
60086;SDS011;45960;53.630;55.972;2023-02-28T01:51:27;18.88;;;9.10;;
60086;SDS011;45960;53.630;55.972;2023-02-28T01:52:35;19.15;;;9.00;;
60086;SDS011;45960;53.630;55.972;2023-02-28T01:53:56;23.52;;;8.45;;
60086;SDS011;45960;53.630;55.972;2023-02-28T01:55:04;9.43;;;6.03;;
60086;SDS011;45960;53.630;55.972;2023-02-28T01:56:07;23.15;;;9.27;;
60086;SDS011;45960;53.630;55.972;2023-02-28T01:57:11;18.98;;;8.18;;
60086;SDS011;45960;53.630;55.972;2023-02-28T01:58:17;33.00;;;8.07;;
60086;SDS011;45960;53.630;55.972;2023-02-28T01:59:25;21.30;;;8.40;;
60086;SDS011;45960;53.630;55.972;2023-02-28T02:00:31;16.10;;;8.32;;
60086;SDS011;45960;53.630;55.972;2023-02-28T02:01:32;19.13;;;8.30;;
60086;SDS011;45960;53.630;55.972;2023-02-28T02:02:35;21.23;;;10.50;;
60086;SDS011;45960;53.630;55.972;2023-02-28T02:03:37;24.48;;;9.85;;
60086;SDS011;45960;53.630;55.972;2023-02-28T02:04:39;16.10;;;7.68;;
60086;SDS011;45960;53.630;55.972;2023-02-28T02:05:50;21.33;;;8.75;;
60086;SDS011;45960;53.630;55.972;2023-02-28T02:06:51;20.42;;;10.02;;
60086;SDS011;45960;53.630;55.972;2023-02-28T02:07:55;15.98;;;8.48;;
60086;SDS011;45960;53.630;55.972;2023-02-28T02:09:05;22.98;;;9.10;;
60086;SDS011;45960;53.630;55.972;2023-02-28T02:11:22;13.18;;;6.95;;
60086;SDS011;45960;53.630;55.972;2023-02-28T02:15:19;18.23;;;7.32;;
60086;SDS011;45960;53.630;55.972;2023-02-28T02:17:45;25.08;;;8.98;;
60086;SDS011;45960;53.630;55.972;2023-02-28T02:18:57;18.45;;;8.30;;
60086;SDS011;45960;53.630;55.972;2023-02-28T02:23:16;19.65;;;7.90;;
60086;SDS011;45960;53.630;55.972;2023-02-28T02:25:56;18.42;;;8.27;;
60086;SDS011;45960;53.630;55.972;2023-02-28T02:27:33;14.32;;;6.72;;
60086;SDS011;45960;53.630;55.972;2023-02-28T02:30:30;14.80;;;6.53;;
60086;SDS011;45960;53.630;55.972;2023-02-28T02:36:38;13.40;;;7.78;;
60086;SDS011;45960;53.630;55.972;2023-02-28T02:38:06;18.90;;;7.85;;
60086;SDS011;45960;53.630;55.972;2023-02-28T02:39:22;17.02;;;8.45;;
60086;SDS011;45960;53.630;55.972;2023-02-28T02:40:43;17.17;;;5.88;;
60086;SDS011;45960;53.630;55.972;2023-02-28T02:42:31;19.27;;;7.00;;
60086;SDS011;45960;53.630;55.972;2023-02-28T02:43:49;15.98;;;8.55;;
60086;SDS011;45960;53.630;55.972;2023-02-28T02:44:58;13.52;;;6.18;;
60086;SDS011;45960;53.630;55.972;2023-02-28T02:46:07;16.38;;;8.80;;
60086;SDS011;45960;53.630;55.972;2023-02-28T02:47:30;20.38;;;9.23;;
60086;SDS011;45960;53.630;55.972;2023-02-28T02:48:34;17.15;;;8.52;;
60086;SDS011;45960;53.630;55.972;2023-02-28T02:49:39;17.08;;;6.80;;
60086;SDS011;45960;53.630;55.972;2023-02-28T02:50:50;15.20;;;6.25;;
60086;SDS011;45960;53.630;55.972;2023-02-28T02:51:54;15.93;;;8.00;;
60086;SDS011;45960;53.630;55.972;2023-02-28T02:53:01;21.00;;;9.30;;
60086;SDS011;45960;53.630;55.972;2023-02-28T02:54:11;15.60;;;7.00;;
60086;SDS011;45960;53.630;55.972;2023-02-28T02:55:16;27.20;;;8.48;;
60086;SDS011;45960;53.630;55.972;2023-02-28T02:56:21;18.33;;;8.82;;
60086;SDS011;45960;53.630;55.972;2023-02-28T02:57:34;11.77;;;6.75;;
60086;SDS011;45960;53.630;55.972;2023-02-28T02:58:40;13.25;;;7.45;;
60086;SDS011;45960;53.630;55.972;2023-02-28T02:59:44;15.07;;;7.97;;
60086;SDS011;45960;53.630;55.972;2023-02-28T03:00:47;14.32;;;6.78;;
60086;SDS011;45960;53.630;55.972;2023-02-28T03:01:55;16.42;;;7.43;;
60086;SDS011;45960;53.630;55.972;2023-02-28T03:02:59;20.75;;;7.50;;
60086;SDS011;45960;53.630;55.972;2023-02-28T03:04:04;15.18;;;7.78;;
60086;SDS011;45960;53.630;55.972;2023-02-28T03:05:12;19.42;;;7.53;;
60086;SDS011;45960;53.630;55.972;2023-02-28T03:06:19;18.67;;;8.90;;
60086;SDS011;45960;53.630;55.972;2023-02-28T03:07:21;23.23;;;10.15;;
60086;SDS011;45960;53.630;55.972;2023-02-28T03:08:22;20.58;;;7.90;;
60086;SDS011;45960;53.630;55.972;2023-02-28T03:09:24;23.38;;;8.43;;
60086;SDS011;45960;53.630;55.972;2023-02-28T03:11:52;18.05;;;7.70;;
60086;SDS011;45960;53.630;55.972;2023-02-28T03:17:40;15.15;;;8.27;;
60086;SDS011;45960;53.630;55.972;2023-02-28T03:26:24;23.70;;;9.85;;
60086;SDS011;45960;53.630;55.972;2023-02-28T03:27:34;18.25;;;8.73;;
60086;SDS011;45960;53.630;55.972;2023-02-28T03:30:27;17.33;;;7.45;;
60086;SDS011;45960;53.630;55.972;2023-02-28T03:31:39;18.45;;;8.68;;
60086;SDS011;45960;53.630;55.972;2023-02-28T03:33:59;16.67;;;8.55;;
60086;SDS011;45960;53.630;55.972;2023-02-28T03:35:04;19.35;;;7.47;;
60086;SDS011;45960;53.630;55.972;2023-02-28T03:37:19;17.77;;;9.07;;
60086;SDS011;45960;53.630;55.972;2023-02-28T03:38:34;24.17;;;10.45;;
60086;SDS011;45960;53.630;55.972;2023-02-28T03:39:59;22.13;;;9.02;;
60086;SDS011;45960;53.630;55.972;2023-02-28T03:41:12;24.33;;;9.13;;
60086;SDS011;45960;53.630;55.972;2023-02-28T03:42:21;18.80;;;9.15;;
60086;SDS011;45960;53.630;55.972;2023-02-28T03:43:28;26.40;;;10.85;;
60086;SDS011;45960;53.630;55.972;2023-02-28T03:44:32;14.63;;;7.00;;
60086;SDS011;45960;53.630;55.972;2023-02-28T03:45:54;22.27;;;9.30;;
60086;SDS011;45960;53.630;55.972;2023-02-28T03:46:58;19.67;;;8.50;;
60086;SDS011;45960;53.630;55.972;2023-02-28T03:48:24;21.15;;;10.95;;
60086;SDS011;45960;53.630;55.972;2023-02-28T03:49:32;20.98;;;10.75;;
60086;SDS011;45960;53.630;55.972;2023-02-28T03:50:39;20.75;;;10.63;;
60086;SDS011;45960;53.630;55.972;2023-02-28T03:51:41;20.77;;;10.52;;
60086;SDS011;45960;53.630;55.972;2023-02-28T03:52:47;21.17;;;9.43;;
60086;SDS011;45960;53.630;55.972;2023-02-28T03:54:04;27.08;;;11.38;;
60086;SDS011;45960;53.630;55.972;2023-02-28T03:55:10;18.02;;;8.32;;
60086;SDS011;45960;53.630;55.972;2023-02-28T03:58:47;22.00;;;9.02;;
60086;SDS011;45960;53.630;55.972;2023-02-28T04:02:17;22.23;;;9.55;;
60086;SDS011;45960;53.630;55.972;2023-02-28T04:03:19;21.85;;;9.82;;
60086;SDS011;45960;53.630;55.972;2023-02-28T04:04:20;18.98;;;9.32;;
60086;SDS011;45960;53.630;55.972;2023-02-28T04:05:22;13.93;;;6.75;;
60086;SDS011;45960;53.630;55.972;2023-02-28T04:06:24;15.88;;;7.57;;
60086;SDS011;45960;53.630;55.972;2023-02-28T04:07:28;16.45;;;8.93;;
60086;SDS011;45960;53.630;55.972;2023-02-28T04:08:37;15.05;;;7.03;;
60086;SDS011;45960;53.630;55.972;2023-02-28T04:09:38;11.77;;;6.22;;
60086;SDS011;45960;53.630;55.972;2023-02-28T04:10:39;14.98;;;7.00;;
60086;SDS011;45960;53.630;55.972;2023-02-28T04:11:42;13.85;;;7.22;;
60086;SDS011;45960;53.630;55.972;2023-02-28T04:12:52;18.10;;;8.35;;
60086;SDS011;45960;53.630;55.972;2023-02-28T04:13:53;15.65;;;6.47;;
60086;SDS011;45960;53.630;55.972;2023-02-28T04:14:54;17.00;;;6.28;;
60086;SDS011;45960;53.630;55.972;2023-02-28T04:15:55;11.70;;;6.03;;
60086;SDS011;45960;53.630;55.972;2023-02-28T04:16:57;11.52;;;4.95;;
60086;SDS011;45960;53.630;55.972;2023-02-28T04:17:58;10.00;;;5.45;;
60086;SDS011;45960;53.630;55.972;2023-02-28T04:18:59;15.02;;;6.07;;
60086;SDS011;45960;53.630;55.972;2023-02-28T04:20:04;14.57;;;6.35;;
60086;SDS011;45960;53.630;55.972;2023-02-28T04:21:10;16.17;;;7.15;;
60086;SDS011;45960;53.630;55.972;2023-02-28T04:22:12;12.90;;;6.38;;
60086;SDS011;45960;53.630;55.972;2023-02-28T04:23:14;15.43;;;6.97;;
60086;SDS011;45960;53.630;55.972;2023-02-28T04:24:16;16.55;;;5.90;;
60086;SDS011;45960;53.630;55.972;2023-02-28T04:25:20;15.05;;;6.05;;
60086;SDS011;45960;53.630;55.972;2023-02-28T04:26:23;13.45;;;5.97;;
60086;SDS011;45960;53.630;55.972;2023-02-28T04:27:24;17.00;;;5.45;;
60086;SDS011;45960;53.630;55.972;2023-02-28T04:28:25;13.55;;;5.85;;
60086;SDS011;45960;53.630;55.972;2023-02-28T04:29:27;13.32;;;6.85;;
60086;SDS011;45960;53.630;55.972;2023-02-28T04:30:35;12.93;;;5.80;;
60086;SDS011;45960;53.630;55.972;2023-02-28T04:31:37;14.07;;;5.47;;
60086;SDS011;45960;53.630;55.972;2023-02-28T04:32:39;12.35;;;6.03;;
60086;SDS011;45960;53.630;55.972;2023-02-28T04:33:40;16.23;;;6.35;;
60086;SDS011;45960;53.630;55.972;2023-02-28T04:34:42;18.70;;;9.45;;
60086;SDS011;45960;53.630;55.972;2023-02-28T04:35:43;13.88;;;7.13;;
60086;SDS011;45960;53.630;55.972;2023-02-28T04:36:44;15.15;;;9.02;;
60086;SDS011;45960;53.630;55.972;2023-02-28T04:37:46;16.90;;;7.43;;
60086;SDS011;45960;53.630;55.972;2023-02-28T04:38:47;15.07;;;8.07;;
60086;SDS011;45960;53.630;55.972;2023-02-28T04:39:48;17.85;;;8.43;;
60086;SDS011;45960;53.630;55.972;2023-02-28T04:40:49;16.05;;;7.95;;
60086;SDS011;45960;53.630;55.972;2023-02-28T04:41:50;17.55;;;8.05;;
60086;SDS011;45960;53.630;55.972;2023-02-28T04:42:52;16.90;;;8.15;;
60086;SDS011;45960;53.630;55.972;2023-02-28T04:43:54;14.73;;;7.38;;
60086;SDS011;45960;53.630;55.972;2023-02-28T04:44:56;16.17;;;7.68;;
60086;SDS011;45960;53.630;55.972;2023-02-28T04:45:57;14.00;;;7.60;;
60086;SDS011;45960;53.630;55.972;2023-02-28T04:47:01;18.15;;;8.35;;
60086;SDS011;45960;53.630;55.972;2023-02-28T04:48:02;18.88;;;8.40;;
60086;SDS011;45960;53.630;55.972;2023-02-28T04:49:03;16.08;;;8.80;;
60086;SDS011;45960;53.630;55.972;2023-02-28T04:50:05;16.35;;;7.35;;
60086;SDS011;45960;53.630;55.972;2023-02-28T04:51:08;13.27;;;7.25;;
60086;SDS011;45960;53.630;55.972;2023-02-28T04:52:11;13.40;;;6.78;;
60086;SDS011;45960;53.630;55.972;2023-02-28T04:53:13;8.57;;;5.80;;
60086;SDS011;45960;53.630;55.972;2023-02-28T04:54:14;12.68;;;5.22;;
60086;SDS011;45960;53.630;55.972;2023-02-28T04:55:16;10.05;;;5.47;;
60086;SDS011;45960;53.630;55.972;2023-02-28T04:56:17;11.32;;;6.45;;
60086;SDS011;45960;53.630;55.972;2023-02-28T04:57:19;9.88;;;4.22;;
60086;SDS011;45960;53.630;55.972;2023-02-28T04:58:20;9.35;;;5.10;;
60086;SDS011;45960;53.630;55.972;2023-02-28T04:59:23;10.48;;;5.30;;
60086;SDS011;45960;53.630;55.972;2023-02-28T05:00:24;9.93;;;5.40;;
60086;SDS011;45960;53.630;55.972;2023-02-28T05:01:26;12.90;;;5.53;;
60086;SDS011;45960;53.630;55.972;2023-02-28T05:02:30;8.88;;;3.53;;
60086;SDS011;45960;53.630;55.972;2023-02-28T05:03:31;9.20;;;4.50;;
60086;SDS011;45960;53.630;55.972;2023-02-28T05:04:33;8.10;;;4.80;;
60086;SDS011;45960;53.630;55.972;2023-02-28T05:05:34;8.85;;;4.20;;
60086;SDS011;45960;53.630;55.972;2023-02-28T05:06:35;5.50;;;3.50;;
60086;SDS011;45960;53.630;55.972;2023-02-28T05:07:36;8.80;;;4.00;;
60086;SDS011;45960;53.630;55.972;2023-02-28T05:08:38;9.90;;;5.75;;
60086;SDS011;45960;53.630;55.972;2023-02-28T05:09:40;7.68;;;4.25;;
60086;SDS011;45960;53.630;55.972;2023-02-28T05:10:41;9.15;;;4.78;;
60086;SDS011;45960;53.630;55.972;2023-02-28T05:11:42;9.05;;;5.18;;
60086;SDS011;45960;53.630;55.972;2023-02-28T05:12:43;8.77;;;4.15;;
60086;SDS011;45960;53.630;55.972;2023-02-28T05:13:46;9.05;;;4.82;;
60086;SDS011;45960;53.630;55.972;2023-02-28T05:14:48;8.48;;;4.25;;
60086;SDS011;45960;53.630;55.972;2023-02-28T05:15:49;8.63;;;4.40;;
60086;SDS011;45960;53.630;55.972;2023-02-28T05:16:51;8.48;;;4.05;;
60086;SDS011;45960;53.630;55.972;2023-02-28T05:17:52;10.82;;;4.90;;
60086;SDS011;45960;53.630;55.972;2023-02-28T05:18:53;9.32;;;4.68;;
60086;SDS011;45960;53.630;55.972;2023-02-28T05:19:54;8.60;;;4.82;;
60086;SDS011;45960;53.630;55.972;2023-02-28T05:20:55;10.00;;;4.85;;
60086;SDS011;45960;53.630;55.972;2023-02-28T05:21:56;7.82;;;4.97;;
60086;SDS011;45960;53.630;55.972;2023-02-28T05:22:57;7.72;;;4.55;;
60086;SDS011;45960;53.630;55.972;2023-02-28T05:24:01;11.45;;;5.18;;
60086;SDS011;45960;53.630;55.972;2023-02-28T05:25:23;12.43;;;4.63;;
60086;SDS011;45960;53.630;55.972;2023-02-28T05:26:24;7.95;;;4.93;;
60086;SDS011;45960;53.630;55.972;2023-02-28T05:27:27;8.02;;;4.50;;
60086;SDS011;45960;53.630;55.972;2023-02-28T05:28:28;8.55;;;4.50;;
60086;SDS011;45960;53.630;55.972;2023-02-28T05:29:30;8.45;;;4.15;;
60086;SDS011;45960;53.630;55.972;2023-02-28T05:30:31;6.80;;;4.25;;
60086;SDS011;45960;53.630;55.972;2023-02-28T05:31:32;8.43;;;4.10;;
60086;SDS011;45960;53.630;55.972;2023-02-28T05:32:34;8.85;;;4.68;;
60086;SDS011;45960;53.630;55.972;2023-02-28T05:33:35;7.93;;;3.55;;
60086;SDS011;45960;53.630;55.972;2023-02-28T05:34:37;6.38;;;3.97;;
60086;SDS011;45960;53.630;55.972;2023-02-28T05:35:40;7.20;;;4.30;;
60086;SDS011;45960;53.630;55.972;2023-02-28T05:36:42;7.82;;;4.10;;
60086;SDS011;45960;53.630;55.972;2023-02-28T05:37:43;8.15;;;4.13;;
60086;SDS011;45960;53.630;55.972;2023-02-28T05:38:48;6.57;;;3.20;;
60086;SDS011;45960;53.630;55.972;2023-02-28T05:39:49;7.95;;;4.47;;
60086;SDS011;45960;53.630;55.972;2023-02-28T05:40:50;4.97;;;3.13;;
60086;SDS011;45960;53.630;55.972;2023-02-28T05:41:53;7.05;;;4.25;;
60086;SDS011;45960;53.630;55.972;2023-02-28T05:42:55;8.25;;;3.53;;
60086;SDS011;45960;53.630;55.972;2023-02-28T05:43:56;8.15;;;4.50;;
60086;SDS011;45960;53.630;55.972;2023-02-28T05:44:58;9.15;;;4.13;;
60086;SDS011;45960;53.630;55.972;2023-02-28T05:46:01;8.05;;;4.47;;
60086;SDS011;45960;53.630;55.972;2023-02-28T05:47:04;8.27;;;4.85;;
60086;SDS011;45960;53.630;55.972;2023-02-28T05:48:05;7.68;;;3.63;;
60086;SDS011;45960;53.630;55.972;2023-02-28T05:49:06;8.10;;;4.30;;
60086;SDS011;45960;53.630;55.972;2023-02-28T05:50:07;6.50;;;3.85;;
60086;SDS011;45960;53.630;55.972;2023-02-28T05:51:09;8.73;;;4.78;;
60086;SDS011;45960;53.630;55.972;2023-02-28T05:52:11;8.23;;;4.15;;
60086;SDS011;45960;53.630;55.972;2023-02-28T05:53:12;4.03;;;2.40;;
60086;SDS011;45960;53.630;55.972;2023-02-28T05:54:13;6.93;;;3.97;;
60086;SDS011;45960;53.630;55.972;2023-02-28T05:55:14;7.15;;;3.75;;
60086;SDS011;45960;53.630;55.972;2023-02-28T05:56:15;7.25;;;3.83;;
60086;SDS011;45960;53.630;55.972;2023-02-28T05:57:16;8.45;;;4.00;;
60086;SDS011;45960;53.630;55.972;2023-02-28T05:58:17;6.32;;;3.67;;
60086;SDS011;45960;53.630;55.972;2023-02-28T05:59:19;6.35;;;3.42;;
60086;SDS011;45960;53.630;55.972;2023-02-28T06:00:20;7.25;;;4.53;;
60086;SDS011;45960;53.630;55.972;2023-02-28T06:02:34;8.32;;;4.63;;
60086;SDS011;45960;53.630;55.972;2023-02-28T06:03:35;6.57;;;3.90;;
60086;SDS011;45960;53.630;55.972;2023-02-28T06:04:37;7.68;;;4.35;;
60086;SDS011;45960;53.630;55.972;2023-02-28T06:05:38;8.90;;;5.03;;
60086;SDS011;45960;53.630;55.972;2023-02-28T06:06:39;6.88;;;4.10;;
60086;SDS011;45960;53.630;55.972;2023-02-28T06:07:41;6.55;;;3.38;;
60086;SDS011;45960;53.630;55.972;2023-02-28T06:08:42;3.88;;;2.78;;
60086;SDS011;45960;53.630;55.972;2023-02-28T06:09:45;5.80;;;3.80;;
60086;SDS011;45960;53.630;55.972;2023-02-28T06:10:46;5.00;;;3.42;;
60086;SDS011;45960;53.630;55.972;2023-02-28T06:11:47;7.53;;;4.25;;
60086;SDS011;45960;53.630;55.972;2023-02-28T06:12:48;6.30;;;3.97;;
60086;SDS011;45960;53.630;55.972;2023-02-28T06:13:49;6.05;;;3.40;;
60086;SDS011;45960;53.630;55.972;2023-02-28T06:14:50;7.25;;;3.60;;
60086;SDS011;45960;53.630;55.972;2023-02-28T06:15:51;7.13;;;3.38;;
60086;SDS011;45960;53.630;55.972;2023-02-28T06:16:52;6.43;;;3.80;;
60086;SDS011;45960;53.630;55.972;2023-02-28T06:17:53;8.80;;;4.07;;
60086;SDS011;45960;53.630;55.972;2023-02-28T06:18:57;6.18;;;4.05;;
60086;SDS011;45960;53.630;55.972;2023-02-28T06:19:59;6.53;;;3.47;;
60086;SDS011;45960;53.630;55.972;2023-02-28T06:21:00;6.32;;;3.47;;
60086;SDS011;45960;53.630;55.972;2023-02-28T06:22:01;11.77;;;3.60;;
60086;SDS011;45960;53.630;55.972;2023-02-28T06:23:02;5.32;;;3.08;;
60086;SDS011;45960;53.630;55.972;2023-02-28T06:24:04;7.50;;;4.25;;
60086;SDS011;45960;53.630;55.972;2023-02-28T06:25:06;6.63;;;3.33;;
60086;SDS011;45960;53.630;55.972;2023-02-28T06:26:07;7.25;;;3.38;;
60086;SDS011;45960;53.630;55.972;2023-02-28T06:27:08;6.30;;;3.63;;
60086;SDS011;45960;53.630;55.972;2023-02-28T06:28:09;6.25;;;3.38;;
60086;SDS011;45960;53.630;55.972;2023-02-28T06:29:11;7.78;;;4.28;;
60086;SDS011;45960;53.630;55.972;2023-02-28T06:30:12;7.43;;;4.00;;
60086;SDS011;45960;53.630;55.972;2023-02-28T06:31:15;6.25;;;3.67;;
60086;SDS011;45960;53.630;55.972;2023-02-28T06:32:17;7.25;;;3.97;;
60086;SDS011;45960;53.630;55.972;2023-02-28T06:33:18;9.38;;;3.60;;
60086;SDS011;45960;53.630;55.972;2023-02-28T06:34:20;6.65;;;4.30;;
60086;SDS011;45960;53.630;55.972;2023-02-28T06:35:21;7.07;;;3.50;;
60086;SDS011;45960;53.630;55.972;2023-02-28T06:36:22;7.00;;;3.42;;
60086;SDS011;45960;53.630;55.972;2023-02-28T06:37:23;7.57;;;4.10;;
60086;SDS011;45960;53.630;55.972;2023-02-28T06:38:27;7.38;;;4.00;;
60086;SDS011;45960;53.630;55.972;2023-02-28T06:39:29;5.57;;;3.53;;
60086;SDS011;45960;53.630;55.972;2023-02-28T06:40:31;7.13;;;4.00;;
60086;SDS011;45960;53.630;55.972;2023-02-28T06:41:35;7.68;;;4.10;;
60086;SDS011;45960;53.630;55.972;2023-02-28T06:42:39;5.80;;;3.35;;
60086;SDS011;45960;53.630;55.972;2023-02-28T06:43:40;7.53;;;4.20;;
60086;SDS011;45960;53.630;55.972;2023-02-28T06:44:43;5.57;;;3.15;;
60086;SDS011;45960;53.630;55.972;2023-02-28T06:45:44;8.00;;;3.97;;
60086;SDS011;45960;53.630;55.972;2023-02-28T06:46:45;6.88;;;3.72;;
60086;SDS011;45960;53.630;55.972;2023-02-28T06:47:46;5.15;;;3.38;;
60086;SDS011;45960;53.630;55.972;2023-02-28T06:48:52;7.45;;;4.22;;
60086;SDS011;45960;53.630;55.972;2023-02-28T06:49:53;8.90;;;5.55;;
60086;SDS011;45960;53.630;55.972;2023-02-28T06:51:04;6.90;;;3.53;;
60086;SDS011;45960;53.630;55.972;2023-02-28T06:52:07;4.80;;;3.17;;
60086;SDS011;45960;53.630;55.972;2023-02-28T06:53:11;8.05;;;3.55;;
60086;SDS011;45960;53.630;55.972;2023-02-28T06:54:12;10.25;;;4.13;;
60086;SDS011;45960;53.630;55.972;2023-02-28T06:55:14;8.00;;;3.58;;
60086;SDS011;45960;53.630;55.972;2023-02-28T06:56:15;10.90;;;4.65;;